Terminal Aerodrome Forecast
Issued by NWS

Home | Current Version | Previous Version | Text Only | Print | Product List | Glossary On
Versions: 1 2 3 4 5 6 7 8 9 10 11 12 13 14 15 16 17 18 19 20 21 22 23 24 25 26 27 28 29 30 31 32 33 34
000
FTUS43 KLOT 010300 AAA
TAFORD
TAF AMD
KORD 010303Z 0103/0206 24005KT P6SM SCT100
     FM011500 24006KT P6SM VCSH BKN050 PROB30 0117/0121 5SM TSRA
      BKN050CB
     FM012100 06007KT P6SM BKN050
     FM020200 13004KT P6SM SCT050=

USA.gov is the U.S. government's official web portal to all federal, state and local government web resources and services.